sensor_id;sensor_type;location;lat;lon;timestamp;temperature;humidity
74968;SHT30;63523;51.880;12.630;2023-05-13T00:00:42;13.59;57.30
74968;SHT30;63523;51.880;12.630;2023-05-13T00:03:08;13.57;57.17
74968;SHT30;63523;51.880;12.630;2023-05-13T00:05:33;13.56;57.13
74968;SHT30;63523;51.880;12.630;2023-05-13T00:07:58;13.56;57.08
74968;SHT30;63523;51.880;12.630;2023-05-13T00:10:34;13.56;57.08
74968;SHT30;63523;51.880;12.630;2023-05-13T00:12:59;13.55;57.26
74968;SHT30;63523;51.880;12.630;2023-05-13T00:15:25;13.56;57.29
74968;SHT30;63523;51.880;12.630;2023-05-13T00:17:50;13.55;57.14
74968;SHT30;63523;51.880;12.630;2023-05-13T00:20:15;13.56;57.47
74968;SHT30;63523;51.880;12.630;2023-05-13T00:22:41;13.50;58.01
74968;SHT30;63523;51.880;12.630;2023-05-13T00:25:06;13.43;58.04
74968;SHT30;63523;51.880;12.630;2023-05-13T00:27:32;13.38;58.26
74968;SHT30;63523;51.880;12.630;2023-05-13T00:29:57;13.34;58.81
74968;SHT30;63523;51.880;12.630;2023-05-13T00:32:23;13.25;58.52
74968;SHT30;63523;51.880;12.630;2023-05-13T00:34:49;13.25;58.40
74968;SHT30;63523;51.880;12.630;2023-05-13T00:37:14;13.26;58.27
74968;SHT30;63523;51.880;12.630;2023-05-13T00:39:39;13.32;58.79
74968;SHT30;63523;51.880;12.630;2023-05-13T00:42:06;13.34;58.71
74968;SHT30;63523;51.880;12.630;2023-05-13T00:44:31;13.29;58.22
74968;SHT30;63523;51.880;12.630;2023-05-13T00:46:56;13.31;58.32
74968;SHT30;63523;51.880;12.630;2023-05-13T00:49:22;13.29;58.61
74968;SHT30;63523;51.880;12.630;2023-05-13T00:51:47;13.28;58.67
74968;SHT30;63523;51.880;12.630;2023-05-13T00:54:14;13.21;58.76
74968;SHT30;63523;51.880;12.630;2023-05-13T00:56:40;13.22;58.62
74968;SHT30;63523;51.880;12.630;2023-05-13T00:59:05;13.21;59.33
74968;SHT30;63523;51.880;12.630;2023-05-13T01:04:11;13.04;59.64
74968;SHT30;63523;51.880;12.630;2023-05-13T01:12:15;13.00;59.62
74968;SHT30;63523;51.880;12.630;2023-05-13T01:15:11;13.01;59.25
74968;SHT30;63523;51.880;12.630;2023-05-13T01:18:05;13.07;59.16
74968;SHT30;63523;51.880;12.630;2023-05-13T01:20:32;13.05;59.06
74968;SHT30;63523;51.880;12.630;2023-05-13T01:22:57;13.05;59.00
74968;SHT30;63523;51.880;12.630;2023-05-13T01:25:23;13.03;59.12
74968;SHT30;63523;51.880;12.630;2023-05-13T01:27:50;13.03;59.33
74968;SHT30;63523;51.880;12.630;2023-05-13T01:30:15;12.95;59.47
74968;SHT30;63523;51.880;12.630;2023-05-13T01:32:41;12.93;59.26
74968;SHT30;63523;51.880;12.630;2023-05-13T01:35:08;12.91;59.84
74968;SHT30;63523;51.880;12.630;2023-05-13T01:37:35;12.86;59.74
74968;SHT30;63523;51.880;12.630;2023-05-13T01:40:01;12.79;60.25
74968;SHT30;63523;51.880;12.630;2023-05-13T01:42:28;12.75;60.36
74968;SHT30;63523;51.880;12.630;2023-05-13T01:44:53;12.69;60.67
74968;SHT30;63523;51.880;12.630;2023-05-13T01:47:19;12.64;60.43
74968;SHT30;63523;51.880;12.630;2023-05-13T01:49:44;12.64;60.26
74968;SHT30;63523;51.880;12.630;2023-05-13T01:52:09;12.70;60.68
74968;SHT30;63523;51.880;12.630;2023-05-13T01:54:35;12.67;60.43
74968;SHT30;63523;51.880;12.630;2023-05-13T01:57:00;12.70;60.50
74968;SHT30;63523;51.880;12.630;2023-05-13T01:59:25;12.72;60.48
74968;SHT30;63523;51.880;12.630;2023-05-13T02:01:51;12.76;59.84
74968;SHT30;63523;51.880;12.630;2023-05-13T02:04:16;12.83;59.53
74968;SHT30;63523;51.880;12.630;2023-05-13T02:06:41;12.88;59.99
74968;SHT30;63523;51.880;12.630;2023-05-13T02:09:07;12.90;59.73
74968;SHT30;63523;51.880;12.630;2023-05-13T02:11:32;12.95;59.33
74968;SHT30;63523;51.880;12.630;2023-05-13T02:13:57;12.93;59.39
74968;SHT30;63523;51.880;12.630;2023-05-13T02:16:23;12.87;59.91
74968;SHT30;63523;51.880;12.630;2023-05-13T02:18:48;12.86;59.43
74968;SHT30;63523;51.880;12.630;2023-05-13T02:21:13;12.83;59.92
74968;SHT30;63523;51.880;12.630;2023-05-13T02:23:38;12.79;60.03
74968;SHT30;63523;51.880;12.630;2023-05-13T02:26:04;12.70;60.27
74968;SHT30;63523;51.880;12.630;2023-05-13T02:28:29;12.72;60.06
74968;SHT30;63523;51.880;12.630;2023-05-13T02:30:54;12.72;60.20
74968;SHT30;63523;51.880;12.630;2023-05-13T02:33:20;12.67;60.31
74968;SHT30;63523;51.880;12.630;2023-05-13T02:35:45;12.66;60.26
74968;SHT30;63523;51.880;12.630;2023-05-13T02:38:11;12.72;59.44
74968;SHT30;63523;51.880;12.630;2023-05-13T02:40:36;12.77;59.41
74968;SHT30;63523;51.880;12.630;2023-05-13T02:43:02;12.84;59.17
74968;SHT30;63523;51.880;12.630;2023-05-13T02:45:27;12.84;59.14
74968;SHT30;63523;51.880;12.630;2023-05-13T02:47:52;12.87;58.98
74968;SHT30;63523;51.880;12.630;2023-05-13T02:50:18;12.87;59.21
74968;SHT30;63523;51.880;12.630;2023-05-13T02:52:43;12.87;59.16
74968;SHT30;63523;51.880;12.630;2023-05-13T02:55:09;12.88;59.31
74968;SHT30;63523;51.880;12.630;2023-05-13T02:57:34;12.77;59.49
74968;SHT30;63523;51.880;12.630;2023-05-13T03:00:05;12.69;60.43
74968;SHT30;63523;51.880;12.630;2023-05-13T03:02:31;12.55;60.45
74968;SHT30;63523;51.880;12.630;2023-05-13T03:04:56;12.50;60.92
74968;SHT30;63523;51.880;12.630;2023-05-13T03:07:23;12.42;61.23
74968;SHT30;63523;51.880;12.630;2023-05-13T03:09:48;12.35;61.37
74968;SHT30;63523;51.880;12.630;2023-05-13T03:12:14;12.32;61.30
74968;SHT30;63523;51.880;12.630;2023-05-13T03:14:39;12.36;60.92
74968;SHT30;63523;51.880;12.630;2023-05-13T03:17:05;12.43;60.62
74968;SHT30;63523;51.880;12.630;2023-05-13T03:19:32;12.48;60.80
74968;SHT30;63523;51.880;12.630;2023-05-13T03:21:58;12.48;60.90
74968;SHT30;63523;51.880;12.630;2023-05-13T03:24:23;12.46;60.78
74968;SHT30;63523;51.880;12.630;2023-05-13T03:26:48;12.43;60.74
74968;SHT30;63523;51.880;12.630;2023-05-13T03:29:14;12.43;60.83
74968;SHT30;63523;51.880;12.630;2023-05-13T03:31:39;12.31;61.85
74968;SHT30;63523;51.880;12.630;2023-05-13T03:34:05;12.21;61.97
74968;SHT30;63523;51.880;12.630;2023-05-13T03:36:31;12.12;62.99
74968;SHT30;63523;51.880;12.630;2023-05-13T03:38:56;12.06;62.49
74968;SHT30;63523;51.880;12.630;2023-05-13T03:41:21;12.11;63.02
74968;SHT30;63523;51.880;12.630;2023-05-13T03:43:47;12.14;63.03
74968;SHT30;63523;51.880;12.630;2023-05-13T03:46:12;12.20;62.85
74968;SHT30;63523;51.880;12.630;2023-05-13T03:48:37;12.26;62.37
74968;SHT30;63523;51.880;12.630;2023-05-13T03:51:02;12.32;62.36
74968;SHT30;63523;51.880;12.630;2023-05-13T03:53:28;12.39;62.45
74968;SHT30;63523;51.880;12.630;2023-05-13T03:55:53;12.43;61.76
74968;SHT30;63523;51.880;12.630;2023-05-13T03:58:18;12.49;61.50
74968;SHT30;63523;51.880;12.630;2023-05-13T04:00:45;12.60;60.88
74968;SHT30;63523;51.880;12.630;2023-05-13T04:03:11;12.69;60.76
74968;SHT30;63523;51.880;12.630;2023-05-13T04:05:37;12.69;60.79
74968;SHT30;63523;51.880;12.630;2023-05-13T04:08:02;12.72;61.00
74968;SHT30;63523;51.880;12.630;2023-05-13T04:10:27;12.69;61.31
74968;SHT30;63523;51.880;12.630;2023-05-13T04:12:53;12.77;61.03
74968;SHT30;63523;51.880;12.630;2023-05-13T04:15:18;12.97;60.86
74968;SHT30;63523;51.880;12.630;2023-05-13T04:17:43;13.16;60.32
74968;SHT30;63523;51.880;12.630;2023-05-13T04:20:09;13.45;59.72
74968;SHT30;63523;51.880;12.630;2023-05-13T04:22:34;13.73;58.29
74968;SHT30;63523;51.880;12.630;2023-05-13T04:25:00;13.84;57.32
74968;SHT30;63523;51.880;12.630;2023-05-13T04:27:25;13.87;57.42
74968;SHT30;63523;51.880;12.630;2023-05-13T04:29:50;13.80;57.97
74968;SHT30;63523;51.880;12.630;2023-05-13T04:32:16;13.73;58.28
74968;SHT30;63523;51.880;12.630;2023-05-13T04:34:47;13.66;58.94
74968;SHT30;63523;51.880;12.630;2023-05-13T04:37:12;13.55;59.31
74968;SHT30;63523;51.880;12.630;2023-05-13T04:39:37;13.59;58.79
74968;SHT30;63523;51.880;12.630;2023-05-13T04:42:03;13.57;59.29
74968;SHT30;63523;51.880;12.630;2023-05-13T04:44:28;13.63;58.86
74968;SHT30;63523;51.880;12.630;2023-05-13T04:46:53;13.73;58.97
74968;SHT30;63523;51.880;12.630;2023-05-13T04:49:18;13.90;58.64
74968;SHT30;63523;51.880;12.630;2023-05-13T04:51:44;14.14;58.29
74968;SHT30;63523;51.880;12.630;2023-05-13T04:54:09;14.26;57.10
74968;SHT30;63523;51.880;12.630;2023-05-13T04:56:34;14.46;56.54
74968;SHT30;63523;51.880;12.630;2023-05-13T04:59:00;14.70;55.86
74968;SHT30;63523;51.880;12.630;2023-05-13T05:01:25;14.97;54.92
74968;SHT30;63523;51.880;12.630;2023-05-13T05:03:50;15.22;54.27
74968;SHT30;63523;51.880;12.630;2023-05-13T05:06:15;15.45;53.56
74968;SHT30;63523;51.880;12.630;2023-05-13T05:08:41;15.59;54.20
74968;SHT30;63523;51.880;12.630;2023-05-13T05:11:06;15.69;53.74
74968;SHT30;63523;51.880;12.630;2023-05-13T05:13:31;15.86;53.15
74968;SHT30;63523;51.880;12.630;2023-05-13T05:15:56;16.01;52.85
74968;SHT30;63523;51.880;12.630;2023-05-13T05:18:22;16.11;53.01
74968;SHT30;63523;51.880;12.630;2023-05-13T05:20:47;16.12;52.11
74968;SHT30;63523;51.880;12.630;2023-05-13T05:23:12;16.01;52.80
74968;SHT30;63523;51.880;12.630;2023-05-13T05:25:37;16.00;52.95
74968;SHT30;63523;51.880;12.630;2023-05-13T05:28:03;15.98;52.89
74968;SHT30;63523;51.880;12.630;2023-05-13T05:30:30;15.90;53.12
74968;SHT30;63523;51.880;12.630;2023-05-13T05:33:03;15.84;53.01
74968;SHT30;63523;51.880;12.630;2023-05-13T05:35:29;15.84;52.89
74968;SHT30;63523;51.880;12.630;2023-05-13T05:37:55;15.76;52.67
74968;SHT30;63523;51.880;12.630;2023-05-13T05:40:20;15.63;53.94
74968;SHT30;63523;51.880;12.630;2023-05-13T05:42:46;15.60;54.51
74968;SHT30;63523;51.880;12.630;2023-05-13T05:45:11;15.66;54.72
74968;SHT30;63523;51.880;12.630;2023-05-13T05:47:36;15.74;54.48
74968;SHT30;63523;51.880;12.630;2023-05-13T05:50:01;15.83;54.27
74968;SHT30;63523;51.880;12.630;2023-05-13T05:52:27;15.80;54.18
74968;SHT30;63523;51.880;12.630;2023-05-13T05:54:52;15.80;54.01
74968;SHT30;63523;51.880;12.630;2023-05-13T05:57:17;15.82;54.86
74968;SHT30;63523;51.880;12.630;2023-05-13T05:59:43;15.87;54.76
74968;SHT30;63523;51.880;12.630;2023-05-13T06:02:08;15.87;55.24
74968;SHT30;63523;51.880;12.630;2023-05-13T06:04:33;16.04;55.07
74968;SHT30;63523;51.880;12.630;2023-05-13T06:06:59;16.15;53.42
74968;SHT30;63523;51.880;12.630;2023-05-13T06:09:24;16.15;54.56
74968;SHT30;63523;51.880;12.630;2023-05-13T06:11:50;16.15;55.22
74968;SHT30;63523;51.880;12.630;2023-05-13T06:14:16;16.25;54.53
74968;SHT30;63523;51.880;12.630;2023-05-13T06:16:41;16.22;55.24
74968;SHT30;63523;51.880;12.630;2023-05-13T06:19:06;16.21;54.96
74968;SHT30;63523;51.880;12.630;2023-05-13T06:21:32;16.30;55.11
74968;SHT30;63523;51.880;12.630;2023-05-13T06:23:58;16.48;54.28
74968;SHT30;63523;51.880;12.630;2023-05-13T06:26:24;16.59;53.41
74968;SHT30;63523;51.880;12.630;2023-05-13T06:28:50;16.72;53.87
74968;SHT30;63523;51.880;12.630;2023-05-13T06:31:16;16.70;54.33
74968;SHT30;63523;51.880;12.630;2023-05-13T06:33:41;16.69;53.43
74968;SHT30;63523;51.880;12.630;2023-05-13T06:36:06;16.84;54.01
74968;SHT30;63523;51.880;12.630;2023-05-13T06:38:33;16.76;53.75
74968;SHT30;63523;51.880;12.630;2023-05-13T06:40:58;16.81;53.33
74968;SHT30;63523;51.880;12.630;2023-05-13T06:43:24;16.88;53.28
74968;SHT30;63523;51.880;12.630;2023-05-13T06:45:50;17.07;52.64
74968;SHT30;63523;51.880;12.630;2023-05-13T06:48:15;17.15;52.97
74968;SHT30;63523;51.880;12.630;2023-05-13T06:50:40;17.22;52.54
74968;SHT30;63523;51.880;12.630;2023-05-13T06:53:06;17.32;51.84
74968;SHT30;63523;51.880;12.630;2023-05-13T06:55:31;17.53;50.86
74968;SHT30;63523;51.880;12.630;2023-05-13T06:57:56;17.61;51.22
74968;SHT30;63523;51.880;12.630;2023-05-13T07:00:22;17.67;50.56
74968;SHT30;63523;51.880;12.630;2023-05-13T07:02:47;17.82;49.30
74968;SHT30;63523;51.880;12.630;2023-05-13T07:05:12;17.80;49.16
74968;SHT30;63523;51.880;12.630;2023-05-13T07:07:38;17.82;49.35
74968;SHT30;63523;51.880;12.630;2023-05-13T07:10:03;17.90;49.32
74968;SHT30;63523;51.880;12.630;2023-05-13T07:12:28;17.96;47.80
74968;SHT30;63523;51.880;12.630;2023-05-13T07:14:54;18.02;47.39
74968;SHT30;63523;51.880;12.630;2023-05-13T07:17:19;18.07;46.78
74968;SHT30;63523;51.880;12.630;2023-05-13T07:19:45;18.11;47.17
74968;SHT30;63523;51.880;12.630;2023-05-13T07:22:10;18.27;46.36
74968;SHT30;63523;51.880;12.630;2023-05-13T07:24:35;18.34;47.42
74968;SHT30;63523;51.880;12.630;2023-05-13T07:27:00;18.45;45.35
74968;SHT30;63523;51.880;12.630;2023-05-13T07:29:29;18.60;43.97
74968;SHT30;63523;51.880;12.630;2023-05-13T07:31:54;18.66;43.23
74968;SHT30;63523;51.880;12.630;2023-05-13T07:34:20;18.74;42.90
74968;SHT30;63523;51.880;12.630;2023-05-13T07:36:45;18.79;43.09
74968;SHT30;63523;51.880;12.630;2023-05-13T07:39:10;18.87;43.13
74968;SHT30;63523;51.880;12.630;2023-05-13T07:41:36;18.90;43.91
74968;SHT30;63523;51.880;12.630;2023-05-13T07:44:01;19.01;43.04
74968;SHT30;63523;51.880;12.630;2023-05-13T07:46:27;19.07;41.69
74968;SHT30;63523;51.880;12.630;2023-05-13T07:48:52;19.11;43.52
74968;SHT30;63523;51.880;12.630;2023-05-13T07:51:17;19.14;44.64
74968;SHT30;63523;51.880;12.630;2023-05-13T07:53:43;19.27;43.12
74968;SHT30;63523;51.880;12.630;2023-05-13T07:56:11;19.36;41.42
74968;SHT30;63523;51.880;12.630;2023-05-13T07:58:36;19.42;41.37
74968;SHT30;63523;51.880;12.630;2023-05-13T08:01:01;19.45;41.98
74968;SHT30;63523;51.880;12.630;2023-05-13T08:03:29;19.53;42.42
74968;SHT30;63523;51.880;12.630;2023-05-13T08:05:54;19.61;42.90
74968;SHT30;63523;51.880;12.630;2023-05-13T08:08:19;19.76;41.84
74968;SHT30;63523;51.880;12.630;2023-05-13T08:10:45;19.93;38.44
74968;SHT30;63523;51.880;12.630;2023-05-13T08:13:10;19.90;39.24
74968;SHT30;63523;51.880;12.630;2023-05-13T08:15:36;19.91;38.33
74968;SHT30;63523;51.880;12.630;2023-05-13T08:18:01;19.97;38.32
74968;SHT30;63523;51.880;12.630;2023-05-13T08:20:27;20.15;36.92
74968;SHT30;63523;51.880;12.630;2023-05-13T08:22:57;20.32;37.84
74968;SHT30;63523;51.880;12.630;2023-05-13T08:25:23;20.44;36.62
74968;SHT30;63523;51.880;12.630;2023-05-13T08:27:48;20.44;37.64
74968;SHT30;63523;51.880;12.630;2023-05-13T08:30:14;20.61;39.07
74968;SHT30;63523;51.880;12.630;2023-05-13T08:32:40;20.69;38.91
74968;SHT30;63523;51.880;12.630;2023-05-13T08:35:05;20.65;39.08
74968;SHT30;63523;51.880;12.630;2023-05-13T08:37:30;20.89;38.16
74968;SHT30;63523;51.880;12.630;2023-05-13T08:39:56;20.97;38.58
74968;SHT30;63523;51.880;12.630;2023-05-13T08:42:24;21.10;37.77
74968;SHT30;63523;51.880;12.630;2023-05-13T08:44:50;21.23;36.05
74968;SHT30;63523;51.880;12.630;2023-05-13T08:47:38;21.39;35.12
74968;SHT30;63523;51.880;12.630;2023-05-13T08:50:05;21.45;35.85
74968;SHT30;63523;51.880;12.630;2023-05-13T08:52:31;21.59;35.22
74968;SHT30;63523;51.880;12.630;2023-05-13T08:54:58;21.70;34.79
74968;SHT30;63523;51.880;12.630;2023-05-13T08:57:24;21.63;32.46
74968;SHT30;63523;51.880;12.630;2023-05-13T08:59:49;21.52;33.05
74968;SHT30;63523;51.880;12.630;2023-05-13T09:02:15;21.32;33.97
74968;SHT30;63523;51.880;12.630;2023-05-13T09:04:42;21.34;34.65
74968;SHT30;63523;51.880;12.630;2023-05-13T09:07:08;21.37;33.88
74968;SHT30;63523;51.880;12.630;2023-05-13T09:09:34;21.25;33.51
74968;SHT30;63523;51.880;12.630;2023-05-13T09:11:59;21.18;33.38
74968;SHT30;63523;51.880;12.630;2023-05-13T09:14:30;21.25;33.79
74968;SHT30;63523;51.880;12.630;2023-05-13T09:17:00;21.32;33.33
74968;SHT30;63523;51.880;12.630;2023-05-13T09:19:25;21.25;32.70
74968;SHT30;63523;51.880;12.630;2023-05-13T09:21:51;21.24;33.41
74968;SHT30;63523;51.880;12.630;2023-05-13T09:24:17;21.20;33.01
74968;SHT30;63523;51.880;12.630;2023-05-13T09:26:43;21.32;34.24
74968;SHT30;63523;51.880;12.630;2023-05-13T09:29:22;21.52;33.76
74968;SHT30;63523;51.880;12.630;2023-05-13T09:31:52;21.63;34.48
74968;SHT30;63523;51.880;12.630;2023-05-13T09:34:26;21.76;33.50
74968;SHT30;63523;51.880;12.630;2023-05-13T09:37:05;21.92;33.84
74968;SHT30;63523;51.880;12.630;2023-05-13T09:39:33;21.87;32.51
74968;SHT30;63523;51.880;12.630;2023-05-13T09:42:00;21.76;32.83
74968;SHT30;63523;51.880;12.630;2023-05-13T09:44:26;21.72;32.51
74968;SHT30;63523;51.880;12.630;2023-05-13T09:46:52;21.69;33.00
74968;SHT30;63523;51.880;12.630;2023-05-13T09:49:21;21.78;33.67
74968;SHT30;63523;51.880;12.630;2023-05-13T09:51:47;21.82;31.70
74968;SHT30;63523;51.880;12.630;2023-05-13T09:54:12;21.86;34.14
74968;SHT30;63523;51.880;12.630;2023-05-13T09:56:37;22.15;31.81
74968;SHT30;63523;51.880;12.630;2023-05-13T09:59:03;22.11;33.09
74968;SHT30;63523;51.880;12.630;2023-05-13T10:01:29;22.22;33.66
74968;SHT30;63523;51.880;12.630;2023-05-13T10:03:55;22.49;31.36
74968;SHT30;63523;51.880;12.630;2023-05-13T10:06:25;22.52;31.26
74968;SHT30;63523;51.880;12.630;2023-05-13T10:08:52;22.53;32.26
74968;SHT30;63523;51.880;12.630;2023-05-13T10:11:18;22.17;31.72
74968;SHT30;63523;51.880;12.630;2023-05-13T10:13:49;22.17;31.24
74968;SHT30;63523;51.880;12.630;2023-05-13T10:16:17;22.42;31.70
74968;SHT30;63523;51.880;12.630;2023-05-13T10:18:43;22.75;30.67
74968;SHT30;63523;51.880;12.630;2023-05-13T10:21:08;23.07;33.71
74968;SHT30;63523;51.880;12.630;2023-05-13T10:23:34;23.51;29.94
74968;SHT30;63523;51.880;12.630;2023-05-13T10:26:00;23.72;29.39
74968;SHT30;63523;51.880;12.630;2023-05-13T10:28:25;23.61;29.05
74968;SHT30;63523;51.880;12.630;2023-05-13T10:30:52;23.65;29.85
74968;SHT30;63523;51.880;12.630;2023-05-13T10:33:17;23.82;29.66
74968;SHT30;63523;51.880;12.630;2023-05-13T10:35:52;24.06;29.82
74968;SHT30;63523;51.880;12.630;2023-05-13T10:38:25;24.18;29.28
74968;SHT30;63523;51.880;12.630;2023-05-13T10:44:07;24.58;27.44
74968;SHT30;63523;51.880;12.630;2023-05-13T10:46:33;24.28;27.96
74968;SHT30;63523;51.880;12.630;2023-05-13T10:48:58;23.76;27.98
74968;SHT30;63523;51.880;12.630;2023-05-13T10:51:25;23.23;30.23
74968;SHT30;63523;51.880;12.630;2023-05-13T10:53:52;23.03;30.60
74968;SHT30;63523;51.880;12.630;2023-05-13T10:56:22;23.44;31.37
74968;SHT30;63523;51.880;12.630;2023-05-13T10:58:58;24.09;29.90
74968;SHT30;63523;51.880;12.630;2023-05-13T11:01:29;24.61;27.80
74968;SHT30;63523;51.880;12.630;2023-05-13T11:04:02;24.97;26.64
74968;SHT30;63523;51.880;12.630;2023-05-13T11:06:36;24.47;28.28
74968;SHT30;63523;51.880;12.630;2023-05-13T11:11:54;23.35;31.88
74968;SHT30;63523;51.880;12.630;2023-05-13T11:14:21;23.07;31.41
74968;SHT30;63523;51.880;12.630;2023-05-13T11:19:29;24.47;30.00
74968;SHT30;63523;51.880;12.630;2023-05-13T11:22:04;25.02;28.96
74968;SHT30;63523;51.880;12.630;2023-05-13T11:24:32;24.57;26.42
74968;SHT30;63523;51.880;12.630;2023-05-13T11:26:58;23.96;28.10
74968;SHT30;63523;51.880;12.630;2023-05-13T11:29:36;23.70;29.73
74968;SHT30;63523;51.880;12.630;2023-05-13T11:32:04;23.69;28.69
74968;SHT30;63523;51.880;12.630;2023-05-13T11:34:30;23.42;29.88
74968;SHT30;63523;51.880;12.630;2023-05-13T11:39:28;22.86;30.67
74968;SHT30;63523;51.880;12.630;2023-05-13T11:41:53;22.80;31.77
74968;SHT30;63523;51.880;12.630;2023-05-13T11:44:22;23.04;29.81
74968;SHT30;63523;51.880;12.630;2023-05-13T11:46:55;23.04;30.70
74968;SHT30;63523;51.880;12.630;2023-05-13T11:49:43;22.75;31.61
74968;SHT30;63523;51.880;12.630;2023-05-13T11:52:17;22.60;29.86
74968;SHT30;63523;51.880;12.630;2023-05-13T11:54:55;22.53;31.03
74968;SHT30;63523;51.880;12.630;2023-05-13T11:57:24;22.34;32.04
74968;SHT30;63523;51.880;12.630;2023-05-13T11:59:57;22.22;31.77
74968;SHT30;63523;51.880;12.630;2023-05-13T12:02:24;22.25;32.05
74968;SHT30;63523;51.880;12.630;2023-05-13T12:04:50;22.30;30.96
74968;SHT30;63523;51.880;12.630;2023-05-13T12:07:23;22.40;30.34
74968;SHT30;63523;51.880;12.630;2023-05-13T12:09:50;22.37;32.04
74968;SHT30;63523;51.880;12.630;2023-05-13T12:12:16;22.37;33.63
74968;SHT30;63523;51.880;12.630;2023-05-13T12:14:46;22.53;30.99
74968;SHT30;63523;51.880;12.630;2023-05-13T12:17:14;22.82;29.83
74968;SHT30;63523;51.880;12.630;2023-05-13T12:19:40;22.82;29.27
74968;SHT30;63523;51.880;12.630;2023-05-13T12:22:22;22.79;29.63
74968;SHT30;63523;51.880;12.630;2023-05-13T12:24:47;22.73;30.70
74968;SHT30;63523;51.880;12.630;2023-05-13T12:27:12;22.69;29.61
74968;SHT30;63523;51.880;12.630;2023-05-13T12:29:39;22.66;30.38
74968;SHT30;63523;51.880;12.630;2023-05-13T12:32:05;22.60;31.18
74968;SHT30;63523;51.880;12.630;2023-05-13T12:34:32;22.66;30.29
74968;SHT30;63523;51.880;12.630;2023-05-13T12:37:08;22.77;31.67
74968;SHT30;63523;51.880;12.630;2023-05-13T12:39:35;22.92;29.92
74968;SHT30;63523;51.880;12.630;2023-05-13T12:42:00;22.89;29.75
74968;SHT30;63523;51.880;12.630;2023-05-13T12:44:25;23.18;30.07
74968;SHT30;63523;51.880;12.630;2023-05-13T12:46:52;23.61;28.43
74968;SHT30;63523;51.880;12.630;2023-05-13T12:49:17;23.69;28.68
74968;SHT30;63523;51.880;12.630;2023-05-13T12:51:42;23.80;29.76
74968;SHT30;63523;51.880;12.630;2023-05-13T12:54:09;23.77;27.78
74968;SHT30;63523;51.880;12.630;2023-05-13T12:56:36;23.57;28.34
74968;SHT30;63523;51.880;12.630;2023-05-13T12:59:01;23.42;28.51
74968;SHT30;63523;51.880;12.630;2023-05-13T13:01:27;23.25;29.37
74968;SHT30;63523;51.880;12.630;2023-05-13T13:03:52;23.11;29.07
74968;SHT30;63523;51.880;12.630;2023-05-13T13:06:17;23.02;29.98
74968;SHT30;63523;51.880;12.630;2023-05-13T13:08:42;23.03;29.73
74968;SHT30;63523;51.880;12.630;2023-05-13T13:11:08;23.21;30.52
74968;SHT30;63523;51.880;12.630;2023-05-13T13:13:33;23.47;29.29
74968;SHT30;63523;51.880;12.630;2023-05-13T13:15:59;23.45;28.35
74968;SHT30;63523;51.880;12.630;2023-05-13T13:18:25;23.48;28.97
74968;SHT30;63523;51.880;12.630;2023-05-13T13:20:51;23.48;29.51
74968;SHT30;63523;51.880;12.630;2023-05-13T13:23:20;23.51;29.89
74968;SHT30;63523;51.880;12.630;2023-05-13T13:25:45;23.54;29.61
74968;SHT30;63523;51.880;12.630;2023-05-13T13:28:11;23.55;30.27
74968;SHT30;63523;51.880;12.630;2023-05-13T13:30:36;23.55;28.78
74968;SHT30;63523;51.880;12.630;2023-05-13T13:33:02;23.42;28.93
74968;SHT30;63523;51.880;12.630;2023-05-13T13:35:27;23.35;28.60
74968;SHT30;63523;51.880;12.630;2023-05-13T13:37:53;23.23;28.34
74968;SHT30;63523;51.880;12.630;2023-05-13T13:40:18;23.13;28.49
74968;SHT30;63523;51.880;12.630;2023-05-13T13:42:44;22.96;29.30
74968;SHT30;63523;51.880;12.630;2023-05-13T13:45:09;22.95;29.98
74968;SHT30;63523;51.880;12.630;2023-05-13T13:47:35;23.06;29.52
74968;SHT30;63523;51.880;12.630;2023-05-13T13:50:00;23.23;28.95
74968;SHT30;63523;51.880;12.630;2023-05-13T13:52:25;23.38;28.35
74968;SHT30;63523;51.880;12.630;2023-05-13T13:54:53;23.51;27.93
74968;SHT30;63523;51.880;12.630;2023-05-13T13:57:18;23.42;28.17
74968;SHT30;63523;51.880;12.630;2023-05-13T13:59:43;23.18;27.60
74968;SHT30;63523;51.880;12.630;2023-05-13T14:02:09;22.96;29.44
74968;SHT30;63523;51.880;12.630;2023-05-13T14:04:34;22.82;29.15
74968;SHT30;63523;51.880;12.630;2023-05-13T14:06:59;22.73;28.90
74968;SHT30;63523;51.880;12.630;2023-05-13T14:09:24;22.59;29.54
74968;SHT30;63523;51.880;12.630;2023-05-13T14:11:50;22.68;29.13
74968;SHT30;63523;51.880;12.630;2023-05-13T14:14:15;22.80;29.94
74968;SHT30;63523;51.880;12.630;2023-05-13T14:16:40;22.89;29.68
74968;SHT30;63523;51.880;12.630;2023-05-13T14:19:06;23.18;28.37
74968;SHT30;63523;51.880;12.630;2023-05-13T14:21:31;23.42;28.00
74968;SHT30;63523;51.880;12.630;2023-05-13T14:23:56;23.40;27.77
74968;SHT30;63523;51.880;12.630;2023-05-13T14:26:22;23.28;28.10
74968;SHT30;63523;51.880;12.630;2023-05-13T14:28:47;23.14;28.10
74968;SHT30;63523;51.880;12.630;2023-05-13T14:31:12;22.90;29.64
74968;SHT30;63523;51.880;12.630;2023-05-13T14:33:38;22.87;28.59
74968;SHT30;63523;51.880;12.630;2023-05-13T14:36:04;22.79;29.36
74968;SHT30;63523;51.880;12.630;2023-05-13T14:38:29;22.86;29.55
74968;SHT30;63523;51.880;12.630;2023-05-13T14:40:55;22.96;34.12
74968;SHT30;63523;51.880;12.630;2023-05-13T14:43:22;22.79;37.19
74968;SHT30;63523;51.880;12.630;2023-05-13T14:45:47;22.42;39.41
74968;SHT30;63523;51.880;12.630;2023-05-13T14:48:13;22.28;39.48
74968;SHT30;63523;51.880;12.630;2023-05-13T14:50:40;22.06;40.82
74968;SHT30;63523;51.880;12.630;2023-05-13T14:53:05;21.79;41.39
74968;SHT30;63523;51.880;12.630;2023-05-13T14:55:30;21.62;40.79
74968;SHT30;63523;51.880;12.630;2023-05-13T14:57:56;21.42;41.39
74968;SHT30;63523;51.880;12.630;2023-05-13T15:00:21;21.21;41.76
74968;SHT30;63523;51.880;12.630;2023-05-13T15:02:46;21.12;41.74
74968;SHT30;63523;51.880;12.630;2023-05-13T15:05:11;21.14;41.42
74968;SHT30;63523;51.880;12.630;2023-05-13T15:07:37;21.03;40.77
74968;SHT30;63523;51.880;12.630;2023-05-13T15:10:02;21.00;40.59
74968;SHT30;63523;51.880;12.630;2023-05-13T15:12:28;21.03;40.35
74968;SHT30;63523;51.880;12.630;2023-05-13T15:14:53;21.06;40.33
74968;SHT30;63523;51.880;12.630;2023-05-13T15:17:19;21.08;40.82
74968;SHT30;63523;51.880;12.630;2023-05-13T15:19:44;21.21;40.47
74968;SHT30;63523;51.880;12.630;2023-05-13T15:22:10;21.20;41.27
74968;SHT30;63523;51.880;12.630;2023-05-13T15:24:35;21.12;40.33
74968;SHT30;63523;51.880;12.630;2023-05-13T15:27:01;21.04;39.33
74968;SHT30;63523;51.880;12.630;2023-05-13T15:29:27;20.73;39.52